sensor_id;sensor_type;location;lat;lon;timestamp;pressure;altitude;pressure_sealevel;temperature;humidity
76815;BME280;65768;49.906;19.384;2023-03-04T00:01:44;98397.88;;;-1.29;89.74
76815;BME280;65768;49.906;19.384;2023-03-04T00:04:12;98394.94;;;-1.30;89.28
76815;BME280;65768;49.906;19.384;2023-03-04T00:06:40;98398.95;;;-1.25;89.51
76815;BME280;65768;49.906;19.384;2023-03-04T00:09:08;98407.38;;;-1.27;89.45
76815;BME280;65768;49.906;19.384;2023-03-04T00:11:37;98406.39;;;-1.26;89.53
76815;BME280;65768;49.906;19.384;2023-03-04T00:14:05;98398.39;;;-1.22;89.46
76815;BME280;65768;49.906;19.384;2023-03-04T00:16:33;98394.27;;;-1.26;89.40
76815;BME280;65768;49.906;19.384;2023-03-04T00:19:01;98392.08;;;-1.22;89.65
76815;BME280;65768;49.906;19.384;2023-03-04T00:21:29;98390.30;;;-1.20;89.35
76815;BME280;65768;49.906;19.384;2023-03-04T00:23:57;98389.89;;;-1.18;89.61
76815;BME280;65768;49.906;19.384;2023-03-04T00:26:25;98383.79;;;-1.24;89.10
76815;BME280;65768;49.906;19.384;2023-03-04T00:28:53;98380.00;;;-1.20;89.52
76815;BME280;65768;49.906;19.384;2023-03-04T00:31:21;98382.98;;;-1.19;89.11
76815;BME280;65768;49.906;19.384;2023-03-04T00:33:49;98379.12;;;-1.17;89.20
76815;BME280;65768;49.906;19.384;2023-03-04T00:36:17;98371.95;;;-1.13;89.64
76815;BME280;65768;49.906;19.384;2023-03-04T00:38:45;98371.73;;;-1.14;89.09
76815;BME280;65768;49.906;19.384;2023-03-04T00:41:13;98372.13;;;-1.17;89.21
76815;BME280;65768;49.906;19.384;2023-03-04T00:43:41;98369.39;;;-1.13;89.07
76815;BME280;65768;49.906;19.384;2023-03-04T00:46:09;98369.05;;;-1.13;88.80
76815;BME280;65768;49.906;19.384;2023-03-04T00:48:37;98362.70;;;-1.10;88.76
76815;BME280;65768;49.906;19.384;2023-03-04T00:51:05;98353.42;;;-1.11;88.83
76815;BME280;65768;49.906;19.384;2023-03-04T00:53:33;98349.96;;;-1.09;88.92
76815;BME280;65768;49.906;19.384;2023-03-04T00:56:02;98341.53;;;-1.09;88.68
76815;BME280;65768;49.906;19.384;2023-03-04T00:58:30;98339.95;;;-1.07;88.56
76815;BME280;65768;49.906;19.384;2023-03-04T01:00:58;98339.06;;;-1.07;88.47
76815;BME280;65768;49.906;19.384;2023-03-04T01:03:26;98336.55;;;-1.06;88.60
76815;BME280;65768;49.906;19.384;2023-03-04T01:05:58;98335.45;;;-1.08;88.57
76815;BME280;65768;49.906;19.384;2023-03-04T01:08:26;98330.74;;;-1.06;88.35
76815;BME280;65768;49.906;19.384;2023-03-04T01:10:54;98328.21;;;-1.06;88.53
76815;BME280;65768;49.906;19.384;2023-03-04T01:13:22;98316.38;;;-1.06;88.49
76815;BME280;65768;49.906;19.384;2023-03-04T01:15:50;98315.36;;;-1.03;88.27
76815;BME280;65768;49.906;19.384;2023-03-04T01:18:18;98316.40;;;-1.05;88.16
76815;BME280;65768;49.906;19.384;2023-03-04T01:20:46;98319.43;;;-1.03;88.32
76815;BME280;65768;49.906;19.384;2023-03-04T01:23:14;98309.48;;;-1.03;88.51
76815;BME280;65768;49.906;19.384;2023-03-04T01:25:42;98308.03;;;-1.05;88.11
76815;BME280;65768;49.906;19.384;2023-03-04T01:28:10;98293.55;;;-1.04;88.38
76815;BME280;65768;49.906;19.384;2023-03-04T01:30:38;98283.58;;;-1.05;88.12
76815;BME280;65768;49.906;19.384;2023-03-04T01:33:06;98274.65;;;-1.06;88.32
76815;BME280;65768;49.906;19.384;2023-03-04T01:35:34;98269.34;;;-1.06;88.16
76815;BME280;65768;49.906;19.384;2023-03-04T01:38:02;98262.77;;;-1.08;88.11
76815;BME280;65768;49.906;19.384;2023-03-04T01:40:31;98257.96;;;-1.08;88.19
76815;BME280;65768;49.906;19.384;2023-03-04T01:43:00;98254.38;;;-1.08;87.78
76815;BME280;65768;49.906;19.384;2023-03-04T01:45:29;98250.98;;;-1.07;87.83
76815;BME280;65768;49.906;19.384;2023-03-04T01:47:58;98246.21;;;-1.07;87.73
76815;BME280;65768;49.906;19.384;2023-03-04T01:50:32;98237.06;;;-1.08;87.94
76815;BME280;65768;49.906;19.384;2023-03-04T01:53:01;98235.80;;;-1.10;87.99
76815;BME280;65768;49.906;19.384;2023-03-04T01:55:30;98241.48;;;-1.13;87.89
76815;BME280;65768;49.906;19.384;2023-03-04T01:57:58;98243.96;;;-1.11;88.26
76815;BME280;65768;49.906;19.384;2023-03-04T02:00:30;98237.45;;;-1.11;87.71
76815;BME280;65768;49.906;19.384;2023-03-04T02:03:04;98234.58;;;-1.14;87.64
76815;BME280;65768;49.906;19.384;2023-03-04T02:05:36;98235.40;;;-1.19;87.80
76815;BME280;65768;49.906;19.384;2023-03-04T02:08:05;98233.35;;;-1.23;87.91
76815;BME280;65768;49.906;19.384;2023-03-04T02:10:34;98226.67;;;-1.26;88.25
76815;BME280;65768;49.906;19.384;2023-03-04T02:13:02;98218.70;;;-1.29;88.11
76815;BME280;65768;49.906;19.384;2023-03-04T02:15:31;98220.81;;;-1.35;88.40
76815;BME280;65768;49.906;19.384;2023-03-04T02:18:00;98212.11;;;-1.42;88.41
76815;BME280;65768;49.906;19.384;2023-03-04T02:20:44;98207.80;;;-1.46;88.41
76815;BME280;65768;49.906;19.384;2023-03-04T02:23:25;98208.11;;;-1.50;88.52
76815;BME280;65768;49.906;19.384;2023-03-04T02:26:13;98203.04;;;-1.53;88.61
76815;BME280;65768;49.906;19.384;2023-03-04T02:28:43;98202.37;;;-1.56;89.19
76815;BME280;65768;49.906;19.384;2023-03-04T02:31:33;98205.55;;;-1.57;88.81
76815;BME280;65768;49.906;19.384;2023-03-04T02:34:06;98210.10;;;-1.62;88.96
76815;BME280;65768;49.906;19.384;2023-03-04T02:36:35;98205.56;;;-1.65;89.20
76815;BME280;65768;49.906;19.384;2023-03-04T02:41:50;98203.20;;;-1.71;89.46
76815;BME280;65768;49.906;19.384;2023-03-04T02:44:23;98200.73;;;-1.76;89.46
76815;BME280;65768;49.906;19.384;2023-03-04T02:46:52;98198.27;;;-1.81;89.34
76815;BME280;65768;49.906;19.384;2023-03-04T02:49:22;98197.78;;;-1.80;89.93
76815;BME280;65768;49.906;19.384;2023-03-04T02:51:52;98194.27;;;-1.79;89.44
76815;BME280;65768;49.906;19.384;2023-03-04T02:54:22;98191.48;;;-1.87;89.89
76815;BME280;65768;49.906;19.384;2023-03-04T02:56:53;98187.90;;;-1.91;89.95
76815;BME280;65768;49.906;19.384;2023-03-04T02:59:22;98183.42;;;-1.92;90.10
76815;BME280;65768;49.906;19.384;2023-03-04T03:01:50;98170.19;;;-1.93;90.11
76815;BME280;65768;49.906;19.384;2023-03-04T03:04:19;98170.00;;;-1.97;90.07
76815;BME280;65768;49.906;19.384;2023-03-04T03:06:49;98170.02;;;-2.00;90.41
76815;BME280;65768;49.906;19.384;2023-03-04T03:09:18;98167.14;;;-2.03;90.23
76815;BME280;65768;49.906;19.384;2023-03-04T03:11:46;98164.25;;;-2.10;90.62
76815;BME280;65768;49.906;19.384;2023-03-04T03:14:14;98156.05;;;-2.14;90.82
76815;BME280;65768;49.906;19.384;2023-03-04T03:16:42;98153.01;;;-2.17;90.90
76815;BME280;65768;49.906;19.384;2023-03-04T03:19:10;98147.08;;;-2.19;91.04
76815;BME280;65768;49.906;19.384;2023-03-04T03:21:38;98143.42;;;-2.20;91.27
76815;BME280;65768;49.906;19.384;2023-03-04T03:24:06;98144.16;;;-2.26;90.70
76815;BME280;65768;49.906;19.384;2023-03-04T03:26:35;98140.64;;;-2.28;90.92
76815;BME280;65768;49.906;19.384;2023-03-04T03:29:03;98138.52;;;-2.33;91.30
76815;BME280;65768;49.906;19.384;2023-03-04T03:31:31;98142.80;;;-2.43;91.31
76815;BME280;65768;49.906;19.384;2023-03-04T03:33:59;98141.69;;;-2.52;91.43
76815;BME280;65768;49.906;19.384;2023-03-04T03:36:27;98139.55;;;-2.61;91.48
76815;BME280;65768;49.906;19.384;2023-03-04T03:38:55;98138.69;;;-2.68;91.76
76815;BME280;65768;49.906;19.384;2023-03-04T03:41:23;98133.79;;;-2.67;92.09
76815;BME280;65768;49.906;19.384;2023-03-04T03:43:51;98135.86;;;-2.73;91.98
76815;BME280;65768;49.906;19.384;2023-03-04T03:46:19;98132.23;;;-2.74;91.92
76815;BME280;65768;49.906;19.384;2023-03-04T03:48:47;98132.96;;;-2.73;92.20
76815;BME280;65768;49.906;19.384;2023-03-04T03:51:15;98128.80;;;-2.71;92.24
76815;BME280;65768;49.906;19.384;2023-03-04T03:53:43;98127.20;;;-2.76;92.08
76815;BME280;65768;49.906;19.384;2023-03-04T03:56:11;98123.34;;;-2.88;92.24
76815;BME280;65768;49.906;19.384;2023-03-04T03:58:39;98124.92;;;-3.00;92.12
76815;BME280;65768;49.906;19.384;2023-03-04T04:01:07;98125.92;;;-3.01;92.42
76815;BME280;65768;49.906;19.384;2023-03-04T04:03:36;98129.11;;;-3.08;92.61
76815;BME280;65768;49.906;19.384;2023-03-04T04:06:04;98127.77;;;-3.18;92.90
76815;BME280;65768;49.906;19.384;2023-03-04T04:08:32;98130.31;;;-3.24;93.09
76815;BME280;65768;49.906;19.384;2023-03-04T04:11:00;98132.63;;;-3.19;93.94
76815;BME280;65768;49.906;19.384;2023-03-04T04:13:28;98132.25;;;-3.20;93.93
76815;BME280;65768;49.906;19.384;2023-03-04T04:15:56;98130.91;;;-3.26;93.68
76815;BME280;65768;49.906;19.384;2023-03-04T04:18:24;98134.21;;;-3.18;94.06
76815;BME280;65768;49.906;19.384;2023-03-04T04:20:53;98128.86;;;-3.23;93.63
76815;BME280;65768;49.906;19.384;2023-03-04T04:23:21;98132.29;;;-3.22;93.83
76815;BME280;65768;49.906;19.384;2023-03-04T04:25:49;98134.13;;;-3.20;93.69
76815;BME280;65768;49.906;19.384;2023-03-04T04:28:17;98131.70;;;-3.17;93.45
76815;BME280;65768;49.906;19.384;2023-03-04T04:30:45;98125.63;;;-3.19;93.41
76815;BME280;65768;49.906;19.384;2023-03-04T04:33:13;98126.95;;;-3.33;93.43
76815;BME280;65768;49.906;19.384;2023-03-04T04:35:41;98126.44;;;-3.46;93.60
76815;BME280;65768;49.906;19.384;2023-03-04T04:38:10;98127.64;;;-3.52;93.47
76815;BME280;65768;49.906;19.384;2023-03-04T04:40:38;98131.44;;;-3.55;93.26
76815;BME280;65768;49.906;19.384;2023-03-04T04:43:06;98128.41;;;-3.54;93.21
76815;BME280;65768;49.906;19.384;2023-03-04T04:45:34;98130.35;;;-3.53;93.41
76815;BME280;65768;49.906;19.384;2023-03-04T04:48:02;98128.63;;;-3.56;94.08
76815;BME280;65768;49.906;19.384;2023-03-04T04:50:30;98130.64;;;-3.54;94.25
76815;BME280;65768;49.906;19.384;2023-03-04T04:52:58;98132.98;;;-3.47;94.22
76815;BME280;65768;49.906;19.384;2023-03-04T04:55:26;98134.99;;;-3.48;94.53
76815;BME280;65768;49.906;19.384;2023-03-04T04:57:54;98137.27;;;-3.41;94.67
76815;BME280;65768;49.906;19.384;2023-03-04T05:00:23;98136.16;;;-3.33;94.38
76815;BME280;65768;49.906;19.384;2023-03-04T05:02:51;98137.06;;;-3.22;94.71
76815;BME280;65768;49.906;19.384;2023-03-04T05:05:19;98137.71;;;-3.16;94.33
76815;BME280;65768;49.906;19.384;2023-03-04T05:07:50;98132.85;;;-3.09;94.67
76815;BME280;65768;49.906;19.384;2023-03-04T05:10:19;98131.14;;;-2.98;94.42
76815;BME280;65768;49.906;19.384;2023-03-04T05:12:47;98130.48;;;-2.85;94.76
76815;BME280;65768;49.906;19.384;2023-03-04T05:15:16;98125.61;;;-2.73;94.69
76815;BME280;65768;49.906;19.384;2023-03-04T05:17:44;98129.35;;;-2.64;94.49
76815;BME280;65768;49.906;19.384;2023-03-04T05:20:12;98131.77;;;-2.56;94.53
76815;BME280;65768;49.906;19.384;2023-03-04T05:22:41;98135.23;;;-2.51;94.49
76815;BME280;65768;49.906;19.384;2023-03-04T05:25:09;98130.71;;;-2.53;94.57
76815;BME280;65768;49.906;19.384;2023-03-04T05:27:37;98129.28;;;-2.54;94.32
76815;BME280;65768;49.906;19.384;2023-03-04T05:30:05;98131.71;;;-2.53;94.53
76815;BME280;65768;49.906;19.384;2023-03-04T05:32:33;98136.84;;;-2.61;94.47
76815;BME280;65768;49.906;19.384;2023-03-04T05:35:01;98141.44;;;-2.67;94.39
76815;BME280;65768;49.906;19.384;2023-03-04T05:37:30;98144.00;;;-2.64;94.70
76815;BME280;65768;49.906;19.384;2023-03-04T05:39:58;98146.02;;;-2.65;94.82
76815;BME280;65768;49.906;19.384;2023-03-04T05:42:26;98150.11;;;-2.61;94.77
76815;BME280;65768;49.906;19.384;2023-03-04T05:44:54;98151.31;;;-2.61;94.57
76815;BME280;65768;49.906;19.384;2023-03-04T05:47:22;98150.03;;;-2.56;94.95
76815;BME280;65768;49.906;19.384;2023-03-04T05:49:49;98148.95;;;-2.53;94.81
76815;BME280;65768;49.906;19.384;2023-03-04T05:52:17;98156.14;;;-2.53;94.64
76815;BME280;65768;49.906;19.384;2023-03-04T05:54:45;98156.39;;;-2.52;94.28
76815;BME280;65768;49.906;19.384;2023-03-04T05:57:13;98154.48;;;-2.48;94.51
76815;BME280;65768;49.906;19.384;2023-03-04T05:59:41;98156.26;;;-2.44;94.47
76815;BME280;65768;49.906;19.384;2023-03-04T06:02:09;98153.31;;;-2.41;94.28
76815;BME280;65768;49.906;19.384;2023-03-04T06:04:37;98151.80;;;-2.38;94.44
76815;BME280;65768;49.906;19.384;2023-03-04T06:07:05;98151.41;;;-2.38;94.29
76815;BME280;65768;49.906;19.384;2023-03-04T06:09:34;98153.73;;;-2.36;94.21
76815;BME280;65768;49.906;19.384;2023-03-04T06:12:03;98152.20;;;-2.40;94.20
76815;BME280;65768;49.906;19.384;2023-03-04T06:14:31;98153.52;;;-2.41;94.05
76815;BME280;65768;49.906;19.384;2023-03-04T06:16:59;98150.37;;;-2.39;94.11
76815;BME280;65768;49.906;19.384;2023-03-04T06:19:27;98152.11;;;-2.38;94.24
76815;BME280;65768;49.906;19.384;2023-03-04T06:21:55;98154.09;;;-2.43;93.82
76815;BME280;65768;49.906;19.384;2023-03-04T06:24:23;98147.23;;;-2.50;93.61
76815;BME280;65768;49.906;19.384;2023-03-04T06:26:51;98144.79;;;-2.45;93.63
76815;BME280;65768;49.906;19.384;2023-03-04T06:29:20;98144.02;;;-2.36;93.73
76815;BME280;65768;49.906;19.384;2023-03-04T06:31:48;98150.16;;;-2.40;93.26
76815;BME280;65768;49.906;19.384;2023-03-04T06:34:16;98148.91;;;-2.37;93.36
76815;BME280;65768;49.906;19.384;2023-03-04T06:36:44;98157.22;;;-2.42;92.99
76815;BME280;65768;49.906;19.384;2023-03-04T06:39:13;98159.27;;;-2.45;93.21
76815;BME280;65768;49.906;19.384;2023-03-04T06:41:41;98154.98;;;-2.45;93.55
76815;BME280;65768;49.906;19.384;2023-03-04T06:44:09;98156.80;;;-2.40;93.11
76815;BME280;65768;49.906;19.384;2023-03-04T06:46:37;98156.58;;;-2.38;92.97
76815;BME280;65768;49.906;19.384;2023-03-04T06:49:05;98165.23;;;-2.42;92.76
76815;BME280;65768;49.906;19.384;2023-03-04T06:51:33;98159.41;;;-2.39;93.21
76815;BME280;65768;49.906;19.384;2023-03-04T06:54:01;98157.33;;;-2.36;92.99
76815;BME280;65768;49.906;19.384;2023-03-04T06:56:29;98146.23;;;-2.33;93.19
76815;BME280;65768;49.906;19.384;2023-03-04T06:58:57;98155.20;;;-2.38;92.94
76815;BME280;65768;49.906;19.384;2023-03-04T07:01:27;98154.11;;;-2.25;92.74
76815;BME280;65768;49.906;19.384;2023-03-04T07:03:56;98144.54;;;-2.29;92.72
76815;BME280;65768;49.906;19.384;2023-03-04T07:06:26;98145.77;;;-2.28;92.55
76815;BME280;65768;49.906;19.384;2023-03-04T07:08:55;98141.04;;;-2.20;92.51
76815;BME280;65768;49.906;19.384;2023-03-04T07:11:23;98143.20;;;-2.18;92.58
76815;BME280;65768;49.906;19.384;2023-03-04T07:13:51;98137.83;;;-2.05;92.71
76815;BME280;65768;49.906;19.384;2023-03-04T07:16:21;98140.73;;;-2.02;92.15
76815;BME280;65768;49.906;19.384;2023-03-04T07:18:49;98140.80;;;-2.11;91.80
76815;BME280;65768;49.906;19.384;2023-03-04T07:21:17;98146.96;;;-2.18;91.62
76815;BME280;65768;49.906;19.384;2023-03-04T07:23:46;98153.63;;;-2.21;91.68
76815;BME280;65768;49.906;19.384;2023-03-04T07:26:14;98160.95;;;-2.22;91.81
76815;BME280;65768;49.906;19.384;2023-03-04T07:28:43;98162.55;;;-2.06;91.54
76815;BME280;65768;49.906;19.384;2023-03-04T07:33:46;98160.33;;;-1.92;91.46
76815;BME280;65768;49.906;19.384;2023-03-04T07:36:14;98159.80;;;-1.93;91.18
76815;BME280;65768;49.906;19.384;2023-03-04T07:38:46;98159.61;;;-1.96;90.82
76815;BME280;65768;49.906;19.384;2023-03-04T07:41:16;98159.58;;;-1.93;90.77
76815;BME280;65768;49.906;19.384;2023-03-04T07:43:44;98155.53;;;-1.82;91.05
76815;BME280;65768;49.906;19.384;2023-03-04T07:46:12;98153.55;;;-1.88;90.50
76815;BME280;65768;49.906;19.384;2023-03-04T07:48:40;98149.72;;;-1.78;90.79
76815;BME280;65768;49.906;19.384;2023-03-04T07:51:11;98149.94;;;-1.73;90.37
76815;BME280;65768;49.906;19.384;2023-03-04T07:53:42;98155.98;;;-1.61;90.49
76815;BME280;65768;49.906;19.384;2023-03-04T07:56:14;98159.61;;;-1.71;89.98
76815;BME280;65768;49.906;19.384;2023-03-04T07:58:43;98155.81;;;-1.68;89.91
76815;BME280;65768;49.906;19.384;2023-03-04T08:01:16;98158.32;;;-1.66;89.75
76815;BME280;65768;49.906;19.384;2023-03-04T08:03:45;98163.58;;;-1.60;89.73
76815;BME280;65768;49.906;19.384;2023-03-04T08:06:14;98164.06;;;-1.49;89.55
76815;BME280;65768;49.906;19.384;2023-03-04T08:08:44;98165.23;;;-1.54;89.26
76815;BME280;65768;49.906;19.384;2023-03-04T08:11:18;98173.11;;;-1.50;89.87
76815;BME280;65768;49.906;19.384;2023-03-04T08:13:47;98180.67;;;-1.56;89.70
76815;BME280;65768;49.906;19.384;2023-03-04T08:16:17;98176.27;;;-1.62;90.02
76815;BME280;65768;49.906;19.384;2023-03-04T08:18:48;98174.05;;;-1.55;90.25
76815;BME280;65768;49.906;19.384;2023-03-04T08:21:18;98178.80;;;-1.63;90.09
76815;BME280;65768;49.906;19.384;2023-03-04T08:23:47;98185.99;;;-1.59;90.25
76815;BME280;65768;49.906;19.384;2023-03-04T08:26:21;98182.69;;;-1.64;90.11
76815;BME280;65768;49.906;19.384;2023-03-04T08:28:50;98184.67;;;-1.72;90.11
76815;BME280;65768;49.906;19.384;2023-03-04T08:31:19;98191.30;;;-1.70;90.34
76815;BME280;65768;49.906;19.384;2023-03-04T08:33:48;98192.27;;;-1.71;89.90
76815;BME280;65768;49.906;19.384;2023-03-04T08:36:16;98191.05;;;-1.72;89.77
76815;BME280;65768;49.906;19.384;2023-03-04T08:38:44;98196.55;;;-1.67;89.94
76815;BME280;65768;49.906;19.384;2023-03-04T08:41:12;98204.39;;;-1.68;89.82
76815;BME280;65768;49.906;19.384;2023-03-04T08:43:42;98198.23;;;-1.75;89.59
76815;BME280;65768;49.906;19.384;2023-03-04T08:46:11;98200.65;;;-1.74;89.76
76815;BME280;65768;49.906;19.384;2023-03-04T08:48:39;98206.42;;;-1.68;90.07
76815;BME280;65768;49.906;19.384;2023-03-04T08:51:09;98211.00;;;-1.61;89.78
76815;BME280;65768;49.906;19.384;2023-03-04T08:53:38;98212.52;;;-1.66;89.46
76815;BME280;65768;49.906;19.384;2023-03-04T08:56:07;98213.17;;;-1.55;89.07
76815;BME280;65768;49.906;19.384;2023-03-04T08:58:36;98209.71;;;-1.42;88.64
76815;BME280;65768;49.906;19.384;2023-03-04T09:01:08;98205.24;;;-1.16;87.98
76815;BME280;65768;49.906;19.384;2023-03-04T09:03:37;98204.48;;;-1.03;87.00
76815;BME280;65768;49.906;19.384;2023-03-04T09:06:07;98211.83;;;-1.04;86.67
76815;BME280;65768;49.906;19.384;2023-03-04T09:08:36;98214.56;;;-1.19;87.36
76815;BME280;65768;49.906;19.384;2023-03-04T09:11:04;98215.02;;;-1.08;87.56
76815;BME280;65768;49.906;19.384;2023-03-04T09:13:33;98216.96;;;-1.26;87.28
76815;BME280;65768;49.906;19.384;2023-03-04T09:16:02;98216.08;;;-1.26;87.46
76815;BME280;65768;49.906;19.384;2023-03-04T09:18:31;98215.95;;;-1.25;87.29
76815;BME280;65768;49.906;19.384;2023-03-04T09:20:59;98214.52;;;-1.34;87.23
76815;BME280;65768;49.906;19.384;2023-03-04T09:23:27;98214.02;;;-1.41;87.20
76815;BME280;65768;49.906;19.384;2023-03-04T09:25:55;98215.63;;;-1.43;87.13
76815;BME280;65768;49.906;19.384;2023-03-04T09:28:23;98213.50;;;-1.37;87.32
76815;BME280;65768;49.906;19.384;2023-03-04T09:30:51;98218.06;;;-1.42;86.71
76815;BME280;65768;49.906;19.384;2023-03-04T09:33:20;98211.95;;;-1.38;87.17
76815;BME280;65768;49.906;19.384;2023-03-04T09:35:48;98215.63;;;-1.43;86.87
76815;BME280;65768;49.906;19.384;2023-03-04T09:38:17;98212.23;;;-1.43;86.60
76815;BME280;65768;49.906;19.384;2023-03-04T09:40:47;98215.01;;;-1.27;86.85
76815;BME280;65768;49.906;19.384;2023-03-04T09:43:20;98210.88;;;-1.17;86.22
76815;BME280;65768;49.906;19.384;2023-03-04T09:45:53;98214.36;;;-1.19;86.06
76815;BME280;65768;49.906;19.384;2023-03-04T09:48:24;98208.63;;;-1.10;86.13
76815;BME280;65768;49.906;19.384;2023-03-04T09:51:16;98203.69;;;-0.94;85.70
76815;BME280;65768;49.906;19.384;2023-03-04T09:54:07;98203.21;;;-0.85;85.15
76815;BME280;65768;49.906;19.384;2023-03-04T09:56:37;98192.54;;;-0.72;84.75
76815;BME280;65768;49.906;19.384;2023-03-04T09:59:29;98196.27;;;-0.69;84.61
76815;BME280;65768;49.906;19.384;2023-03-04T10:02:06;98192.85;;;-0.68;84.47
76815;BME280;65768;49.906;19.384;2023-03-04T10:04:47;98188.59;;;-0.68;84.05
76815;BME280;65768;49.906;19.384;2023-03-04T10:07:27;98189.19;;;-0.70;83.43
76815;BME280;65768;49.906;19.384;2023-03-04T10:10:03;98188.61;;;-0.67;83.98
76815;BME280;65768;49.906;19.384;2023-03-04T10:12:33;98185.61;;;-0.69;83.41
76815;BME280;65768;49.906;19.384;2023-03-04T10:18:17;98179.73;;;-0.71;83.77
76815;BME280;65768;49.906;19.384;2023-03-04T10:20:55;98176.73;;;-0.61;83.71
76815;BME280;65768;49.906;19.384;2023-03-04T10:23:25;98172.74;;;-0.62;83.51
76815;BME280;65768;49.906;19.384;2023-03-04T10:25:54;98178.27;;;-0.69;83.05
76815;BME280;65768;49.906;19.384;2023-03-04T10:28:25;98173.34;;;-0.65;83.16
76815;BME280;65768;49.906;19.384;2023-03-04T10:31:47;98166.48;;;-0.49;83.33
76815;BME280;65768;49.906;19.384;2023-03-04T10:34:11;98162.50;;;-0.42;82.58
76815;BME280;65768;49.906;19.384;2023-03-04T10:39:17;98147.02;;;-0.31;81.92
76815;BME280;65768;49.906;19.384;2023-03-04T10:41:55;98146.58;;;-0.30;81.70
76815;BME280;65768;49.906;19.384;2023-03-04T10:44:24;98147.23;;;-0.34;81.65
76815;BME280;65768;49.906;19.384;2023-03-04T10:46:54;98144.63;;;-0.31;81.48
76815;BME280;65768;49.906;19.384;2023-03-04T10:49:24;98145.78;;;-0.28;81.15
76815;BME280;65768;49.906;19.384;2023-03-04T10:52:00;98137.20;;;-0.28;80.66
76815;BME280;65768;49.906;19.384;2023-03-04T10:54:41;98137.04;;;-0.20;81.18
76815;BME280;65768;49.906;19.384;2023-03-04T10:57:19;98131.33;;;-0.26;80.63
76815;BME280;65768;49.906;19.384;2023-03-04T10:59:55;98132.49;;;-0.22;80.95
76815;BME280;65768;49.906;19.384;2023-03-04T11:02:25;98133.46;;;-0.24;80.75
76815;BME280;65768;49.906;19.384;2023-03-04T11:07:39;98131.70;;;-0.21;80.98
76815;BME280;65768;49.906;19.384;2023-03-04T11:10:56;98127.27;;;-0.16;80.71
76815;BME280;65768;49.906;19.384;2023-03-04T11:15:28;98122.67;;;0.15;80.32
76815;BME280;65768;49.906;19.384;2023-03-04T11:18:11;98115.52;;;0.33;80.35
76815;BME280;65768;49.906;19.384;2023-03-04T11:20:42;98110.04;;;0.34;80.03
76815;BME280;65768;49.906;19.384;2023-03-04T11:25:47;98101.34;;;0.35;79.64
76815;BME280;65768;49.906;19.384;2023-03-04T11:28:21;98097.05;;;0.48;79.60
76815;BME280;65768;49.906;19.384;2023-03-04T11:31:03;98101.05;;;0.45;79.18
76815;BME280;65768;49.906;19.384;2023-03-04T11:33:44;98101.65;;;0.52;79.53
76815;BME280;65768;49.906;19.384;2023-03-04T11:36:28;98100.61;;;0.56;79.22
76815;BME280;65768;49.906;19.384;2023-03-04T11:38:58;98092.21;;;0.42;78.96
76815;BME280;65768;49.906;19.384;2023-03-04T11:41:34;98098.67;;;0.46;79.38
76815;BME280;65768;49.906;19.384;2023-03-04T11:44:05;98097.83;;;0.55;78.97
76815;BME280;65768;49.906;19.384;2023-03-04T11:46:53;98089.23;;;0.64;78.74
76815;BME280;65768;49.906;19.384;2023-03-04T11:52:50;98078.46;;;0.74;78.59
76815;BME280;65768;49.906;19.384;2023-03-04T12:01:41;98058.52;;;0.97;77.70
76815;BME280;65768;49.906;19.384;2023-03-04T12:07:10;98049.41;;;1.02;78.04
76815;BME280;65768;49.906;19.384;2023-03-04T12:12:27;98048.59;;;0.88;77.75
76815;BME280;65768;49.906;19.384;2023-03-04T12:15:25;98049.70;;;0.90;78.08
76815;BME280;65768;49.906;19.384;2023-03-04T12:18:02;98039.56;;;0.90;78.18
76815;BME280;65768;49.906;19.384;2023-03-04T12:20:58;98042.33;;;0.90;78.26
76815;BME280;65768;49.906;19.384;2023-03-04T12:32:09;98048.63;;;0.84;77.73
76815;BME280;65768;49.906;19.384;2023-03-04T12:34:54;98041.84;;;0.91;77.98
76815;BME280;65768;49.906;19.384;2023-03-04T12:37:40;98040.23;;;0.94;77.84
76815;BME280;65768;49.906;19.384;2023-03-04T12:54:39;98023.66;;;1.06;77.30
76815;BME280;65768;49.906;19.384;2023-03-04T12:57:12;98014.28;;;1.23;76.94
76815;BME280;65768;49.906;19.384;2023-03-04T12:59:47;98010.96;;;1.27;76.69
76815;BME280;65768;49.906;19.384;2023-03-04T13:10:41;98008.53;;;1.41;75.84
76815;BME280;65768;49.906;19.384;2023-03-04T13:13:38;98008.17;;;1.41;75.95
76815;BME280;65768;49.906;19.384;2023-03-04T13:18:37;97999.80;;;1.48;75.68
76815;BME280;65768;49.906;19.384;2023-03-04T13:21:29;98000.21;;;1.55;75.65
76815;BME280;65768;49.906;19.384;2023-03-04T13:49:06;97980.58;;;1.48;75.14
76815;BME280;65768;49.906;19.384;2023-03-04T13:51:43;97971.74;;;1.45;75.25
76815;BME280;65768;49.906;19.384;2023-03-04T13:54:14;97970.30;;;1.49;75.58
76815;BME280;65768;49.906;19.384;2023-03-04T13:56:44;97975.63;;;1.43;75.10
76815;BME280;65768;49.906;19.384;2023-03-04T13:59:40;97979.66;;;1.41;75.03
76815;BME280;65768;49.906;19.384;2023-03-04T14:02:15;97973.98;;;1.45;75.51
76815;BME280;65768;49.906;19.384;2023-03-04T14:07:27;97970.08;;;1.36;75.35
76815;BME280;65768;49.906;19.384;2023-03-04T14:12:50;97974.08;;;1.38;75.32
76815;BME280;65768;49.906;19.384;2023-03-04T14:15:28;97967.20;;;1.38;75.24
76815;BME280;65768;49.906;19.384;2023-03-04T14:17:58;97962.55;;;1.37;74.91
76815;BME280;65768;49.906;19.384;2023-03-04T14:20:39;97971.49;;;1.38;75.10
76815;BME280;65768;49.906;19.384;2023-03-04T14:23:29;97970.08;;;1.36;74.67
76815;BME280;65768;49.906;19.384;2023-03-04T14:26:10;97975.95;;;1.37;74.98
76815;BME280;65768;49.906;19.384;2023-03-04T14:28:47;97973.68;;;1.36;74.89
76815;BME280;65768;49.906;19.384;2023-03-04T14:31:18;97970.88;;;1.39;74.78
76815;BME280;65768;49.906;19.384;2023-03-04T14:33:50;97969.33;;;1.39;74.68
76815;BME280;65768;49.906;19.384;2023-03-04T14:36:21;97963.44;;;1.44;74.47
76815;BME280;65768;49.906;19.384;2023-03-04T14:38:56;97962.68;;;1.47;73.99
76815;BME280;65768;49.906;19.384;2023-03-04T14:41:32;97963.59;;;1.48;73.86
76815;BME280;65768;49.906;19.384;2023-03-04T14:46:46;97961.22;;;1.49;73.84
76815;BME280;65768;49.906;19.384;2023-03-04T14:49:16;97959.30;;;1.48;73.78
76815;BME280;65768;49.906;19.384;2023-03-04T14:51:48;97959.10;;;1.48;73.96
76815;BME280;65768;49.906;19.384;2023-03-04T14:59:46;97965.09;;;1.52;73.64